sensor_id;sensor_type;location;lat;lon;timestamp;P1;durP1;ratioP1;P2;durP2;ratioP2
25351;SDS011;13304;48.464;8.712;2024-01-27T00:01:49;15.20;;;8.05;;
25351;SDS011;13304;48.464;8.712;2024-01-27T00:04:15;34.53;;;15.55;;
25351;SDS011;13304;48.464;8.712;2024-01-27T00:06:41;16.98;;;7.93;;
25351;SDS011;13304;48.464;8.712;2024-01-27T00:09:07;69.57;;;27.38;;
25351;SDS011;13304;48.464;8.712;2024-01-27T00:11:32;25.35;;;10.98;;
25351;SDS011;13304;48.464;8.712;2024-01-27T00:13:58;19.73;;;6.95;;
25351;SDS011;13304;48.464;8.712;2024-01-27T00:16:24;39.58;;;18.55;;
25351;SDS011;13304;48.464;8.712;2024-01-27T00:18:50;51.35;;;19.77;;
25351;SDS011;13304;48.464;8.712;2024-01-27T00:21:18;17.48;;;6.95;;
25351;SDS011;13304;48.464;8.712;2024-01-27T00:23:44;43.38;;;17.35;;
25351;SDS011;13304;48.464;8.712;2024-01-27T00:26:10;17.30;;;7.90;;
25351;SDS011;13304;48.464;8.712;2024-01-27T00:28:36;12.20;;;5.88;;
25351;SDS011;13304;48.464;8.712;2024-01-27T00:31:01;23.35;;;11.18;;
25351;SDS011;13304;48.464;8.712;2024-01-27T00:33:27;18.70;;;8.77;;
25351;SDS011;13304;48.464;8.712;2024-01-27T00:35:53;10.57;;;5.20;;
25351;SDS011;13304;48.464;8.712;2024-01-27T00:38:19;11.52;;;3.88;;
25351;SDS011;13304;48.464;8.712;2024-01-27T00:40:44;7.97;;;3.10;;
25351;SDS011;13304;48.464;8.712;2024-01-27T00:43:10;9.35;;;3.13;;
25351;SDS011;13304;48.464;8.712;2024-01-27T00:45:36;12.65;;;7.53;;
25351;SDS011;13304;48.464;8.712;2024-01-27T00:48:01;11.73;;;3.72;;
25351;SDS011;13304;48.464;8.712;2024-01-27T00:50:27;9.80;;;3.72;;
25351;SDS011;13304;48.464;8.712;2024-01-27T00:52:53;7.35;;;2.97;;
25351;SDS011;13304;48.464;8.712;2024-01-27T00:55:18;9.20;;;3.60;;
25351;SDS011;13304;48.464;8.712;2024-01-27T00:57:44;11.32;;;3.58;;
25351;SDS011;13304;48.464;8.712;2024-01-27T01:00:10;10.30;;;3.53;;
25351;SDS011;13304;48.464;8.712;2024-01-27T01:02:36;9.00;;;2.63;;
25351;SDS011;13304;48.464;8.712;2024-01-27T01:05:05;10.68;;;3.25;;
25351;SDS011;13304;48.464;8.712;2024-01-27T01:07:31;8.48;;;3.00;;
25351;SDS011;13304;48.464;8.712;2024-01-27T01:09:57;13.05;;;2.88;;
25351;SDS011;13304;48.464;8.712;2024-01-27T01:12:23;6.25;;;3.15;;
25351;SDS011;13304;48.464;8.712;2024-01-27T01:14:50;7.57;;;3.10;;
25351;SDS011;13304;48.464;8.712;2024-01-27T01:17:16;6.97;;;2.75;;
25351;SDS011;13304;48.464;8.712;2024-01-27T01:19:42;6.55;;;2.95;;
25351;SDS011;13304;48.464;8.712;2024-01-27T01:22:08;7.20;;;3.13;;
25351;SDS011;13304;48.464;8.712;2024-01-27T01:24:33;8.07;;;2.58;;
25351;SDS011;13304;48.464;8.712;2024-01-27T01:26:59;6.95;;;3.00;;
25351;SDS011;13304;48.464;8.712;2024-01-27T01:29:25;7.15;;;2.92;;
25351;SDS011;13304;48.464;8.712;2024-01-27T01:31:51;6.25;;;2.78;;
25351;SDS011;13304;48.464;8.712;2024-01-27T01:34:17;8.38;;;3.20;;
25351;SDS011;13304;48.464;8.712;2024-01-27T01:36:43;8.57;;;3.40;;
25351;SDS011;13304;48.464;8.712;2024-01-27T01:39:09;8.30;;;3.13;;
25351;SDS011;13304;48.464;8.712;2024-01-27T01:41:36;10.55;;;3.42;;
25351;SDS011;13304;48.464;8.712;2024-01-27T01:44:01;7.35;;;2.85;;
25351;SDS011;13304;48.464;8.712;2024-01-27T01:46:27;8.85;;;2.70;;
25351;SDS011;13304;48.464;8.712;2024-01-27T01:48:53;6.35;;;2.17;;
25351;SDS011;13304;48.464;8.712;2024-01-27T01:51:19;7.38;;;2.20;;
25351;SDS011;13304;48.464;8.712;2024-01-27T01:53:45;8.07;;;2.60;;
25351;SDS011;13304;48.464;8.712;2024-01-27T01:56:14;6.50;;;2.50;;
25351;SDS011;13304;48.464;8.712;2024-01-27T01:58:43;7.57;;;2.67;;
25351;SDS011;13304;48.464;8.712;2024-01-27T02:01:10;6.75;;;2.58;;
25351;SDS011;13304;48.464;8.712;2024-01-27T02:03:35;8.23;;;2.92;;
25351;SDS011;13304;48.464;8.712;2024-01-27T02:06:01;7.10;;;2.92;;
25351;SDS011;13304;48.464;8.712;2024-01-27T02:08:27;7.20;;;2.85;;
25351;SDS011;13304;48.464;8.712;2024-01-27T02:10:52;9.05;;;3.10;;
25351;SDS011;13304;48.464;8.712;2024-01-27T02:13:19;7.43;;;2.90;;
25351;SDS011;13304;48.464;8.712;2024-01-27T02:15:47;6.32;;;2.75;;
25351;SDS011;13304;48.464;8.712;2024-01-27T02:18:13;11.97;;;2.47;;
25351;SDS011;13304;48.464;8.712;2024-01-27T02:20:39;8.05;;;2.58;;
25351;SDS011;13304;48.464;8.712;2024-01-27T02:23:05;6.53;;;2.75;;
25351;SDS011;13304;48.464;8.712;2024-01-27T02:25:32;8.45;;;2.88;;
25351;SDS011;13304;48.464;8.712;2024-01-27T02:27:58;6.85;;;2.42;;
25351;SDS011;13304;48.464;8.712;2024-01-27T02:30:23;7.60;;;2.80;;
25351;SDS011;13304;48.464;8.712;2024-01-27T02:32:49;7.32;;;3.13;;
25351;SDS011;13304;48.464;8.712;2024-01-27T02:35:15;7.57;;;3.10;;
25351;SDS011;13304;48.464;8.712;2024-01-27T02:37:41;9.73;;;2.90;;
25351;SDS011;13304;48.464;8.712;2024-01-27T02:40:07;7.13;;;2.50;;
25351;SDS011;13304;48.464;8.712;2024-01-27T02:42:37;7.15;;;2.10;;
25351;SDS011;13304;48.464;8.712;2024-01-27T02:45:03;6.35;;;2.65;;
25351;SDS011;13304;48.464;8.712;2024-01-27T02:47:29;5.88;;;2.38;;
25351;SDS011;13304;48.464;8.712;2024-01-27T02:49:55;7.68;;;1.92;;
25351;SDS011;13304;48.464;8.712;2024-01-27T02:52:21;9.40;;;2.42;;
25351;SDS011;13304;48.464;8.712;2024-01-27T02:54:47;6.50;;;2.35;;
25351;SDS011;13304;48.464;8.712;2024-01-27T02:57:13;6.15;;;2.15;;
25351;SDS011;13304;48.464;8.712;2024-01-27T02:59:40;6.82;;;2.28;;
25351;SDS011;13304;48.464;8.712;2024-01-27T03:02:06;7.63;;;2.30;;
25351;SDS011;13304;48.464;8.712;2024-01-27T03:04:31;7.30;;;2.05;;
25351;SDS011;13304;48.464;8.712;2024-01-27T03:06:57;5.05;;;2.00;;
25351;SDS011;13304;48.464;8.712;2024-01-27T03:09:23;4.75;;;2.00;;
25351;SDS011;13304;48.464;8.712;2024-01-27T03:11:48;6.15;;;2.55;;
25351;SDS011;13304;48.464;8.712;2024-01-27T03:14:14;7.57;;;2.42;;
25351;SDS011;13304;48.464;8.712;2024-01-27T03:16:40;9.35;;;2.53;;
25351;SDS011;13304;48.464;8.712;2024-01-27T03:19:05;7.55;;;2.33;;
25351;SDS011;13304;48.464;8.712;2024-01-27T03:21:31;5.03;;;2.47;;
25351;SDS011;13304;48.464;8.712;2024-01-27T03:24:00;6.40;;;2.40;;
25351;SDS011;13304;48.464;8.712;2024-01-27T03:26:25;8.90;;;2.47;;
25351;SDS011;13304;48.464;8.712;2024-01-27T03:28:51;8.65;;;2.65;;
25351;SDS011;13304;48.464;8.712;2024-01-27T03:31:17;9.35;;;2.15;;
25351;SDS011;13304;48.464;8.712;2024-01-27T03:33:42;9.80;;;2.58;;
25351;SDS011;13304;48.464;8.712;2024-01-27T03:36:11;6.75;;;2.47;;
25351;SDS011;13304;48.464;8.712;2024-01-27T03:38:38;7.37;;;2.20;;
25351;SDS011;13304;48.464;8.712;2024-01-27T03:41:05;7.13;;;2.73;;
25351;SDS011;13304;48.464;8.712;2024-01-27T03:43:31;9.00;;;3.08;;
25351;SDS011;13304;48.464;8.712;2024-01-27T03:45:57;6.32;;;2.72;;
25351;SDS011;13304;48.464;8.712;2024-01-27T03:48:23;7.07;;;2.80;;
25351;SDS011;13304;48.464;8.712;2024-01-27T03:50:49;6.90;;;2.50;;
25351;SDS011;13304;48.464;8.712;2024-01-27T03:53:14;8.57;;;3.10;;
25351;SDS011;13304;48.464;8.712;2024-01-27T03:55:40;12.30;;;3.10;;
25351;SDS011;13304;48.464;8.712;2024-01-27T03:58:06;7.90;;;2.97;;
25351;SDS011;13304;48.464;8.712;2024-01-27T04:00:31;6.93;;;2.72;;
25351;SDS011;13304;48.464;8.712;2024-01-27T04:03:01;5.50;;;2.90;;
25351;SDS011;13304;48.464;8.712;2024-01-27T04:05:28;5.00;;;2.47;;
25351;SDS011;13304;48.464;8.712;2024-01-27T04:07:54;7.50;;;2.50;;
25351;SDS011;13304;48.464;8.712;2024-01-27T04:10:20;18.50;;;2.97;;
25351;SDS011;13304;48.464;8.712;2024-01-27T04:12:47;36.87;;;3.20;;
25351;SDS011;13304;48.464;8.712;2024-01-27T04:15:12;44.37;;;3.40;;
25351;SDS011;13304;48.464;8.712;2024-01-27T04:17:38;68.20;;;4.70;;
25351;SDS011;13304;48.464;8.712;2024-01-27T04:20:05;89.70;;;4.20;;
25351;SDS011;13304;48.464;8.712;2024-01-27T04:22:32;46.90;;;3.63;;
25351;SDS011;13304;48.464;8.712;2024-01-27T04:24:58;25.20;;;3.30;;
25351;SDS011;13304;48.464;8.712;2024-01-27T04:27:24;7.90;;;3.50;;
25351;SDS011;13304;48.464;8.712;2024-01-27T04:29:49;4.33;;;2.80;;
25351;SDS011;13304;48.464;8.712;2024-01-27T04:32:15;4.53;;;2.80;;
25351;SDS011;13304;48.464;8.712;2024-01-27T04:34:41;6.43;;;2.80;;
25351;SDS011;13304;48.464;8.712;2024-01-27T04:37:06;53.37;;;3.53;;
25351;SDS011;13304;48.464;8.712;2024-01-27T04:39:32;18.13;;;3.40;;
25351;SDS011;13304;48.464;8.712;2024-01-27T04:41:57;67.60;;;5.10;;
25351;SDS011;13304;48.464;8.712;2024-01-27T04:44:23;142.60;;;6.40;;
25351;SDS011;13304;48.464;8.712;2024-01-27T04:46:49;275.43;;;7.10;;
25351;SDS011;13304;48.464;8.712;2024-01-27T04:49:15;450.07;;;9.80;;
25351;SDS011;13304;48.464;8.712;2024-01-27T04:51:40;488.83;;;11.27;;
25351;SDS011;13304;48.464;8.712;2024-01-27T04:54:06;549.30;;;12.33;;
25351;SDS011;13304;48.464;8.712;2024-01-27T04:56:32;554.07;;;11.70;;
25351;SDS011;13304;48.464;8.712;2024-01-27T04:58:58;584.13;;;12.63;;
25351;SDS011;13304;48.464;8.712;2024-01-27T05:01:24;602.27;;;15.27;;
25351;SDS011;13304;48.464;8.712;2024-01-27T05:03:49;679.20;;;16.20;;
25351;SDS011;13304;48.464;8.712;2024-01-27T05:06:15;707.10;;;17.17;;
25351;SDS011;13304;48.464;8.712;2024-01-27T05:08:41;627.60;;;15.13;;
25351;SDS011;13304;48.464;8.712;2024-01-27T05:11:06;677.80;;;19.47;;
25351;SDS011;13304;48.464;8.712;2024-01-27T05:13:32;768.73;;;19.70;;
25351;SDS011;13304;48.464;8.712;2024-01-27T05:15:58;751.80;;;21.07;;
25351;SDS011;13304;48.464;8.712;2024-01-27T05:18:24;668.27;;;15.50;;
25351;SDS011;13304;48.464;8.712;2024-01-27T05:20:49;728.13;;;20.20;;
25351;SDS011;13304;48.464;8.712;2024-01-27T05:23:15;716.93;;;17.27;;
25351;SDS011;13304;48.464;8.712;2024-01-27T05:25:40;631.77;;;16.17;;
25351;SDS011;13304;48.464;8.712;2024-01-27T05:28:06;902.73;;;23.13;;
25351;SDS011;13304;48.464;8.712;2024-01-27T05:30:32;886.33;;;18.30;;
25351;SDS011;13304;48.464;8.712;2024-01-27T05:32:58;612.50;;;15.07;;
25351;SDS011;13304;48.464;8.712;2024-01-27T05:35:24;617.50;;;14.67;;
25351;SDS011;13304;48.464;8.712;2024-01-27T05:37:49;666.27;;;16.57;;
25351;SDS011;13304;48.464;8.712;2024-01-27T05:40:16;684.87;;;14.53;;
25351;SDS011;13304;48.464;8.712;2024-01-27T05:42:42;749.67;;;15.70;;
25351;SDS011;13304;48.464;8.712;2024-01-27T05:45:10;1115.80;;;25.77;;
25351;SDS011;13304;48.464;8.712;2024-01-27T05:47:35;915.10;;;21.70;;
25351;SDS011;13304;48.464;8.712;2024-01-27T05:50:04;1158.43;;;27.53;;
25351;SDS011;13304;48.464;8.712;2024-01-27T05:52:32;1094.03;;;27.47;;
25351;SDS011;13304;48.464;8.712;2024-01-27T05:54:58;1175.50;;;28.80;;
25351;SDS011;13304;48.464;8.712;2024-01-27T05:57:24;1124.10;;;28.67;;
25351;SDS011;13304;48.464;8.712;2024-01-27T05:59:50;1004.27;;;24.80;;
25351;SDS011;13304;48.464;8.712;2024-01-27T06:02:15;805.23;;;21.37;;
25351;SDS011;13304;48.464;8.712;2024-01-27T06:04:42;687.80;;;19.33;;
25351;SDS011;13304;48.464;8.712;2024-01-27T06:07:08;956.17;;;26.50;;
25351;SDS011;13304;48.464;8.712;2024-01-27T06:09:34;984.60;;;24.10;;
25351;SDS011;13304;48.464;8.712;2024-01-27T06:12:01;841.47;;;21.10;;
25351;SDS011;13304;48.464;8.712;2024-01-27T06:14:27;798.90;;;21.57;;
25351;SDS011;13304;48.464;8.712;2024-01-27T06:16:53;580.73;;;14.13;;
25351;SDS011;13304;48.464;8.712;2024-01-27T06:19:18;773.13;;;19.53;;
25351;SDS011;13304;48.464;8.712;2024-01-27T06:21:44;809.40;;;21.60;;
25351;SDS011;13304;48.464;8.712;2024-01-27T06:24:10;586.50;;;19.07;;
25351;SDS011;13304;48.464;8.712;2024-01-27T06:26:35;798.07;;;22.57;;
25351;SDS011;13304;48.464;8.712;2024-01-27T06:29:02;684.70;;;16.23;;
25351;SDS011;13304;48.464;8.712;2024-01-27T06:31:29;807.40;;;18.23;;
25351;SDS011;13304;48.464;8.712;2024-01-27T06:33:54;489.40;;;11.23;;
25351;SDS011;13304;48.464;8.712;2024-01-27T06:36:20;481.67;;;10.43;;
25351;SDS011;13304;48.464;8.712;2024-01-27T06:38:49;441.92;;;8.75;;
25351;SDS011;13304;48.464;8.712;2024-01-27T06:41:15;430.50;;;9.67;;
25351;SDS011;13304;48.464;8.712;2024-01-27T06:43:41;334.13;;;7.87;;
25351;SDS011;13304;48.464;8.712;2024-01-27T06:46:07;231.37;;;5.27;;
25351;SDS011;13304;48.464;8.712;2024-01-27T06:48:33;228.53;;;5.23;;
25351;SDS011;13304;48.464;8.712;2024-01-27T06:50:59;142.10;;;5.07;;
25351;SDS011;13304;48.464;8.712;2024-01-27T06:53:24;120.90;;;4.53;;
25351;SDS011;13304;48.464;8.712;2024-01-27T06:55:50;47.10;;;3.20;;
25351;SDS011;13304;48.464;8.712;2024-01-27T06:58:16;36.30;;;2.97;;
25351;SDS011;13304;48.464;8.712;2024-01-27T07:00:42;12.27;;;2.40;;
25351;SDS011;13304;48.464;8.712;2024-01-27T07:03:07;3.07;;;2.40;;
25351;SDS011;13304;48.464;8.712;2024-01-27T07:05:33;3.50;;;2.50;;
25351;SDS011;13304;48.464;8.712;2024-01-27T07:08:04;6.37;;;3.17;;
25351;SDS011;13304;48.464;8.712;2024-01-27T07:10:31;15.80;;;4.70;;
25351;SDS011;13304;48.464;8.712;2024-01-27T07:12:56;387.10;;;11.97;;
25351;SDS011;13304;48.464;8.712;2024-01-27T07:15:22;644.17;;;20.57;;
25351;SDS011;13304;48.464;8.712;2024-01-27T07:17:48;578.80;;;15.83;;
25351;SDS011;13304;48.464;8.712;2024-01-27T07:20:14;563.43;;;20.00;;
25351;SDS011;13304;48.464;8.712;2024-01-27T07:22:40;832.53;;;22.20;;
25351;SDS011;13304;48.464;8.712;2024-01-27T07:25:07;876.10;;;25.27;;
25351;SDS011;13304;48.464;8.712;2024-01-27T07:27:35;817.60;;;22.40;;
25351;SDS011;13304;48.464;8.712;2024-01-27T07:30:00;452.47;;;12.60;;
25351;SDS011;13304;48.464;8.712;2024-01-27T07:32:27;494.33;;;14.03;;
25351;SDS011;13304;48.464;8.712;2024-01-27T07:34:53;468.93;;;13.60;;
25351;SDS011;13304;48.464;8.712;2024-01-27T07:37:18;573.87;;;14.37;;
25351;SDS011;13304;48.464;8.712;2024-01-27T07:39:45;283.10;;;10.03;;
25351;SDS011;13304;48.464;8.712;2024-01-27T07:42:11;274.73;;;12.67;;
25351;SDS011;13304;48.464;8.712;2024-01-27T07:44:37;134.70;;;7.63;;
25351;SDS011;13304;48.464;8.712;2024-01-27T07:47:03;214.00;;;8.13;;
25351;SDS011;13304;48.464;8.712;2024-01-27T07:49:29;212.27;;;9.30;;
25351;SDS011;13304;48.464;8.712;2024-01-27T07:51:54;226.20;;;8.37;;
25351;SDS011;13304;48.464;8.712;2024-01-27T07:54:20;320.40;;;8.97;;
25351;SDS011;13304;48.464;8.712;2024-01-27T07:56:46;245.93;;;8.73;;
25351;SDS011;13304;48.464;8.712;2024-01-27T07:59:12;190.37;;;8.10;;
25351;SDS011;13304;48.464;8.712;2024-01-27T08:01:40;272.93;;;10.33;;
25351;SDS011;13304;48.464;8.712;2024-01-27T08:04:06;351.70;;;10.93;;
25351;SDS011;13304;48.464;8.712;2024-01-27T08:06:33;349.47;;;8.97;;
25351;SDS011;13304;48.464;8.712;2024-01-27T08:08:58;295.50;;;9.10;;
25351;SDS011;13304;48.464;8.712;2024-01-27T08:11:24;188.13;;;8.00;;
25351;SDS011;13304;48.464;8.712;2024-01-27T08:13:50;268.58;;;8.45;;
25351;SDS011;13304;48.464;8.712;2024-01-27T08:16:17;142.35;;;8.13;;
25351;SDS011;13304;48.464;8.712;2024-01-27T08:18:42;217.57;;;10.23;;
25351;SDS011;13304;48.464;8.712;2024-01-27T08:21:09;105.20;;;11.20;;
25351;SDS011;13304;48.464;8.712;2024-01-27T08:23:36;201.60;;;13.10;;
25351;SDS011;13304;48.464;8.712;2024-01-27T08:26:02;139.63;;;10.57;;
25351;SDS011;13304;48.464;8.712;2024-01-27T08:28:28;157.57;;;15.98;;
25351;SDS011;13304;48.464;8.712;2024-01-27T08:30:54;150.50;;;10.00;;
25351;SDS011;13304;48.464;8.712;2024-01-27T08:33:19;122.75;;;8.85;;
25351;SDS011;13304;48.464;8.712;2024-01-27T08:35:48;175.70;;;11.73;;
25351;SDS011;13304;48.464;8.712;2024-01-27T08:38:14;146.60;;;8.82;;
25351;SDS011;13304;48.464;8.712;2024-01-27T08:40:40;99.80;;;7.90;;
25351;SDS011;13304;48.464;8.712;2024-01-27T08:43:05;179.50;;;8.90;;
25351;SDS011;13304;48.464;8.712;2024-01-27T08:45:31;111.25;;;7.43;;
25351;SDS011;13304;48.464;8.712;2024-01-27T08:47:57;119.85;;;8.45;;
25351;SDS011;13304;48.464;8.712;2024-01-27T08:50:23;124.38;;;6.40;;
25351;SDS011;13304;48.464;8.712;2024-01-27T08:52:49;177.73;;;6.72;;
25351;SDS011;13304;48.464;8.712;2024-01-27T08:55:14;170.55;;;7.15;;
25351;SDS011;13304;48.464;8.712;2024-01-27T08:57:43;128.10;;;6.47;;
25351;SDS011;13304;48.464;8.712;2024-01-27T09:00:10;58.40;;;6.88;;
25351;SDS011;13304;48.464;8.712;2024-01-27T09:02:38;55.75;;;6.10;;
25351;SDS011;13304;48.464;8.712;2024-01-27T09:05:03;77.18;;;5.80;;
25351;SDS011;13304;48.464;8.712;2024-01-27T09:07:30;63.40;;;5.82;;
25351;SDS011;13304;48.464;8.712;2024-01-27T09:09:56;46.08;;;6.57;;
25351;SDS011;13304;48.464;8.712;2024-01-27T09:12:21;51.13;;;6.93;;
25351;SDS011;13304;48.464;8.712;2024-01-27T09:14:47;45.35;;;7.50;;
25351;SDS011;13304;48.464;8.712;2024-01-27T09:17:13;20.33;;;6.38;;
25351;SDS011;13304;48.464;8.712;2024-01-27T09:19:38;36.00;;;7.00;;
25351;SDS011;13304;48.464;8.712;2024-01-27T09:22:04;59.80;;;7.63;;
25351;SDS011;13304;48.464;8.712;2024-01-27T09:24:29;28.27;;;6.57;;
25351;SDS011;13304;48.464;8.712;2024-01-27T09:26:55;30.20;;;6.38;;
25351;SDS011;13304;48.464;8.712;2024-01-27T09:29:21;23.98;;;6.68;;
25351;SDS011;13304;48.464;8.712;2024-01-27T09:31:46;176.70;;;27.80;;
25351;SDS011;13304;48.464;8.712;2024-01-27T09:34:12;194.88;;;12.63;;
25351;SDS011;13304;48.464;8.712;2024-01-27T09:36:38;255.35;;;14.57;;
25351;SDS011;13304;48.464;8.712;2024-01-27T09:39:04;236.90;;;13.73;;
25351;SDS011;13304;48.464;8.712;2024-01-27T09:41:30;388.10;;;16.45;;
25351;SDS011;13304;48.464;8.712;2024-01-27T09:44:02;526.00;;;18.67;;
25351;SDS011;13304;48.464;8.712;2024-01-27T09:46:31;534.78;;;16.80;;
25351;SDS011;13304;48.464;8.712;2024-01-27T09:48:57;297.42;;;13.00;;
25351;SDS011;13304;48.464;8.712;2024-01-27T09:51:24;551.08;;;19.08;;
25351;SDS011;13304;48.464;8.712;2024-01-27T09:53:50;679.53;;;19.73;;
25351;SDS011;13304;48.464;8.712;2024-01-27T09:56:19;773.15;;;23.00;;
25351;SDS011;13304;48.464;8.712;2024-01-27T09:58:46;760.08;;;23.30;;
25351;SDS011;13304;48.464;8.712;2024-01-27T10:01:13;879.90;;;25.73;;
25351;SDS011;13304;48.464;8.712;2024-01-27T10:06:09;315.23;;;11.32;;
25351;SDS011;13304;48.464;8.712;2024-01-27T10:08:35;878.55;;;23.92;;
25351;SDS011;13304;48.464;8.712;2024-01-27T10:11:05;489.40;;;15.15;;
25351;SDS011;13304;48.464;8.712;2024-01-27T10:13:32;709.63;;;20.45;;
25351;SDS011;13304;48.464;8.712;2024-01-27T10:16:07;196.68;;;9.57;;
25351;SDS011;13304;48.464;8.712;2024-01-27T10:18:34;361.00;;;14.88;;
25351;SDS011;13304;48.464;8.712;2024-01-27T10:21:05;351.10;;;13.30;;
25351;SDS011;13304;48.464;8.712;2024-01-27T10:23:45;290.98;;;12.10;;
25351;SDS011;13304;48.464;8.712;2024-01-27T10:26:10;300.88;;;11.80;;
25351;SDS011;13304;48.464;8.712;2024-01-27T10:28:36;343.80;;;11.75;;
25351;SDS011;13304;48.464;8.712;2024-01-27T10:31:11;413.48;;;13.57;;
25351;SDS011;13304;48.464;8.712;2024-01-27T10:33:38;538.97;;;17.67;;
25351;SDS011;13304;48.464;8.712;2024-01-27T10:36:04;411.67;;;13.15;;
25351;SDS011;13304;48.464;8.712;2024-01-27T10:38:39;614.00;;;20.15;;
25351;SDS011;13304;48.464;8.712;2024-01-27T10:41:07;648.20;;;19.45;;
25351;SDS011;13304;48.464;8.712;2024-01-27T10:43:37;575.38;;;17.48;;
25351;SDS011;13304;48.464;8.712;2024-01-27T10:46:05;372.10;;;14.07;;
25351;SDS011;13304;48.464;8.712;2024-01-27T10:48:32;199.80;;;11.10;;
25351;SDS011;13304;48.464;8.712;2024-01-27T10:51:00;314.27;;;11.93;;
25351;SDS011;13304;48.464;8.712;2024-01-27T10:53:32;312.17;;;13.48;;
25351;SDS011;13304;48.464;8.712;2024-01-27T10:56:00;432.15;;;15.85;;
25351;SDS011;13304;48.464;8.712;2024-01-27T10:58:28;136.37;;;9.97;;
25351;SDS011;13304;48.464;8.712;2024-01-27T11:00:55;254.38;;;11.43;;
25351;SDS011;13304;48.464;8.712;2024-01-27T11:03:23;253.43;;;12.02;;
25351;SDS011;13304;48.464;8.712;2024-01-27T11:05:50;238.25;;;11.55;;
25351;SDS011;13304;48.464;8.712;2024-01-27T11:08:17;124.57;;;9.50;;
25351;SDS011;13304;48.464;8.712;2024-01-27T11:10:44;225.43;;;11.73;;
25351;SDS011;13304;48.464;8.712;2024-01-27T11:13:10;331.75;;;12.32;;
25351;SDS011;13304;48.464;8.712;2024-01-27T11:15:37;450.30;;;17.05;;
25351;SDS011;13304;48.464;8.712;2024-01-27T11:18:04;173.65;;;10.52;;
25351;SDS011;13304;48.464;8.712;2024-01-27T11:20:33;185.10;;;11.25;;
25351;SDS011;13304;48.464;8.712;2024-01-27T11:23:14;352.92;;;15.43;;
25351;SDS011;13304;48.464;8.712;2024-01-27T11:25:40;388.92;;;14.70;;
25351;SDS011;13304;48.464;8.712;2024-01-27T11:28:12;108.07;;;8.93;;
25351;SDS011;13304;48.464;8.712;2024-01-27T11:30:39;518.08;;;17.25;;
25351;SDS011;13304;48.464;8.712;2024-01-27T11:33:09;376.77;;;14.40;;
25351;SDS011;13304;48.464;8.712;2024-01-27T11:35:35;404.55;;;16.48;;
25351;SDS011;13304;48.464;8.712;2024-01-27T11:38:01;102.10;;;9.40;;
25351;SDS011;13304;48.464;8.712;2024-01-27T11:40:27;200.80;;;10.85;;
25351;SDS011;13304;48.464;8.712;2024-01-27T11:42:54;219.20;;;11.60;;
25351;SDS011;13304;48.464;8.712;2024-01-27T11:45:23;200.85;;;12.60;;
25351;SDS011;13304;48.464;8.712;2024-01-27T11:47:49;291.20;;;13.25;;
25351;SDS011;13304;48.464;8.712;2024-01-27T11:50:18;98.15;;;9.18;;
25351;SDS011;13304;48.464;8.712;2024-01-27T11:52:44;151.10;;;12.07;;
25351;SDS011;13304;48.464;8.712;2024-01-27T11:55:10;203.18;;;11.13;;
25351;SDS011;13304;48.464;8.712;2024-01-27T11:57:36;63.58;;;10.23;;
25351;SDS011;13304;48.464;8.712;2024-01-27T12:00:01;49.67;;;9.48;;
25351;SDS011;13304;48.464;8.712;2024-01-27T12:02:28;158.32;;;11.10;;
25351;SDS011;13304;48.464;8.712;2024-01-27T12:04:54;187.85;;;15.10;;
25351;SDS011;13304;48.464;8.712;2024-01-27T12:07:19;129.82;;;11.10;;
25351;SDS011;13304;48.464;8.712;2024-01-27T12:09:46;63.65;;;11.02;;
25351;SDS011;13304;48.464;8.712;2024-01-27T12:12:14;89.13;;;11.20;;
25351;SDS011;13304;48.464;8.712;2024-01-27T12:14:40;101.45;;;12.10;;
25351;SDS011;13304;48.464;8.712;2024-01-27T12:17:09;67.75;;;11.27;;
25351;SDS011;13304;48.464;8.712;2024-01-27T12:19:36;33.90;;;10.25;;
25351;SDS011;13304;48.464;8.712;2024-01-27T12:22:02;61.67;;;10.18;;
25351;SDS011;13304;48.464;8.712;2024-01-27T12:24:28;42.72;;;10.50;;
25351;SDS011;13304;48.464;8.712;2024-01-27T12:26:55;31.08;;;10.45;;
25351;SDS011;13304;48.464;8.712;2024-01-27T12:29:22;28.48;;;10.77;;
25351;SDS011;13304;48.464;8.712;2024-01-27T12:31:48;27.67;;;10.95;;
25351;SDS011;13304;48.464;8.712;2024-01-27T12:34:14;38.80;;;11.70;;
25351;SDS011;13304;48.464;8.712;2024-01-27T12:36:41;79.25;;;12.73;;
25351;SDS011;13304;48.464;8.712;2024-01-27T12:39:07;83.57;;;11.82;;
25351;SDS011;13304;48.464;8.712;2024-01-27T12:41:34;44.25;;;9.73;;
25351;SDS011;13304;48.464;8.712;2024-01-27T12:44:00;21.65;;;9.55;;
25351;SDS011;13304;48.464;8.712;2024-01-27T12:46:26;31.98;;;11.43;;
25351;SDS011;13304;48.464;8.712;2024-01-27T12:48:52;36.65;;;10.48;;
25351;SDS011;13304;48.464;8.712;2024-01-27T12:51:18;34.90;;;11.60;;
25351;SDS011;13304;48.464;8.712;2024-01-27T12:53:44;43.75;;;10.90;;
25351;SDS011;13304;48.464;8.712;2024-01-27T12:56:10;30.90;;;11.13;;
25351;SDS011;13304;48.464;8.712;2024-01-27T12:58:37;27.38;;;11.68;;
25351;SDS011;13304;48.464;8.712;2024-01-27T13:01:04;19.90;;;11.25;;
25351;SDS011;13304;48.464;8.712;2024-01-27T13:03:30;28.95;;;12.57;;
25351;SDS011;13304;48.464;8.712;2024-01-27T13:05:56;21.40;;;12.05;;
25351;SDS011;13304;48.464;8.712;2024-01-27T13:08:22;24.15;;;11.43;;
25351;SDS011;13304;48.464;8.712;2024-01-27T13:10:48;22.33;;;11.75;;
25351;SDS011;13304;48.464;8.712;2024-01-27T13:13:13;31.30;;;13.05;;
25351;SDS011;13304;48.464;8.712;2024-01-27T13:15:39;64.65;;;13.75;;
25351;SDS011;13304;48.464;8.712;2024-01-27T13:18:05;31.95;;;14.88;;
25351;SDS011;13304;48.464;8.712;2024-01-27T13:20:31;36.92;;;16.35;;
25351;SDS011;13304;48.464;8.712;2024-01-27T13:22:57;35.38;;;15.77;;
25351;SDS011;13304;48.464;8.712;2024-01-27T13:25:23;35.20;;;15.50;;
25351;SDS011;13304;48.464;8.712;2024-01-27T13:27:49;30.95;;;13.82;;
25351;SDS011;13304;48.464;8.712;2024-01-27T13:30:15;22.83;;;12.57;;
25351;SDS011;13304;48.464;8.712;2024-01-27T13:32:42;22.98;;;12.40;;
25351;SDS011;13304;48.464;8.712;2024-01-27T13:35:08;23.27;;;12.98;;
25351;SDS011;13304;48.464;8.712;2024-01-27T13:37:34;27.73;;;13.77;;
25351;SDS011;13304;48.464;8.712;2024-01-27T13:40:00;34.33;;;13.77;;
25351;SDS011;13304;48.464;8.712;2024-01-27T13:42:26;37.05;;;14.90;;
25351;SDS011;13304;48.464;8.712;2024-01-27T13:44:51;29.45;;;12.55;;
25351;SDS011;13304;48.464;8.712;2024-01-27T13:47:17;25.90;;;13.50;;
25351;SDS011;13304;48.464;8.712;2024-01-27T13:49:43;30.52;;;14.13;;
25351;SDS011;13304;48.464;8.712;2024-01-27T13:52:09;25.30;;;13.27;;
25351;SDS011;13304;48.464;8.712;2024-01-27T13:54:36;27.95;;;15.20;;
25351;SDS011;13304;48.464;8.712;2024-01-27T13:57:02;24.35;;;14.00;;
25351;SDS011;13304;48.464;8.712;2024-01-27T13:59:28;23.17;;;13.63;;
25351;SDS011;13304;48.464;8.712;2024-01-27T14:01:54;24.15;;;12.98;;
25351;SDS011;13304;48.464;8.712;2024-01-27T14:04:21;21.90;;;11.75;;
25351;SDS011;13304;48.464;8.712;2024-01-27T14:06:47;19.02;;;12.05;;
25351;SDS011;13304;48.464;8.712;2024-01-27T14:09:13;19.63;;;11.52;;
25351;SDS011;13304;48.464;8.712;2024-01-27T14:11:39;23.45;;;11.88;;
25351;SDS011;13304;48.464;8.712;2024-01-27T14:14:05;21.90;;;11.35;;
25351;SDS011;13304;48.464;8.712;2024-01-27T14:16:30;25.02;;;12.32;;
25351;SDS011;13304;48.464;8.712;2024-01-27T14:18:56;35.45;;;16.65;;
25351;SDS011;13304;48.464;8.712;2024-01-27T14:21:22;35.55;;;17.73;;
25351;SDS011;13304;48.464;8.712;2024-01-27T14:23:48;29.75;;;16.08;;